Time;durP1;ratioP1;P1;durP2;ratioP2;P2;SDS_P1;SDS_P2;PMS_P1;PMS_P2;Temp;Humidity;BMP_temperature;BMP_pressure;BME280_temperature;BME280_humidity;BME280_pressure;Samples;Min_cycle;Max_cycle;Signal;HPM_P1;HPM_P2
2022/03/03 00:00:43;;;;;;;16.30;13.10;;;-2.30;99.90;;;;;;5033631;28;20045;-76
2022/03/03 00:03:09;;;;;;;22.73;14.53;;;-2.20;99.90;;;;;;5035112;28;20045;-77
2022/03/03 00:05:37;;;;;;;15.67;11.37;;;-2.30;99.90;;;;;;5035914;28;20065;-78
2022/03/03 00:08:05;;;;;;;19.40;13.87;;;-2.30;99.90;;;;;;5035102;28;20496;-77
2022/03/03 00:10:32;;;;;;;21.53;16.30;;;-2.30;99.90;;;;;;5036882;28;20064;-76
2022/03/03 00:12:59;;;;;;;15.60;14.00;;;-2.30;99.90;;;;;;5036694;28;20057;-76
2022/03/03 00:15:25;;;;;;;16.80;13.60;;;-2.50;99.90;;;;;;5049203;28;20037;-77
2022/03/03 00:17:52;;;;;;;24.60;15.50;;;-2.60;99.90;;;;;;5057162;28;20072;-78
2022/03/03 00:20:19;;;;;;;23.40;17.20;;;-2.70;99.90;;;;;;5056748;28;20049;-76
2022/03/03 00:22:49;;;;;;;18.57;15.30;;;-2.70;99.90;;;;;;5054331;28;20034;-77
2022/03/03 00:25:17;;;;;;;21.77;16.20;;;-2.80;99.90;;;;;;5058175;28;20045;-75
2022/03/03 00:27:43;;;;;;;19.93;13.93;;;-2.80;99.90;;;;;;5057182;28;20036;-77
2022/03/03 00:30:11;;;;;;;22.37;16.10;;;-2.90;99.90;;;;;;5053373;28;20053;-77
2022/03/03 00:32:40;;;;;;;16.27;14.50;;;-2.90;99.90;;;;;;5053354;28;20058;-76
2022/03/03 00:35:08;;;;;;;17.83;12.03;;;-3.00;99.90;;;;;;5048334;28;20049;-77
2022/03/03 00:37:35;;;;;;;16.60;13.10;;;-3.00;99.90;;;;;;5048172;28;20105;-77
2022/03/03 00:40:04;;;;;;;20.87;14.37;;;-2.90;99.90;;;;;;5034269;28;20045;-76
2022/03/03 00:42:31;;;;;;;18.50;16.43;;;-2.90;99.90;;;;;;5037265;28;20053;-77
2022/03/03 00:44:58;;;;;;;17.47;14.73;;;-2.90;99.90;;;;;;5037234;28;20121;-76
2022/03/03 00:47:24;;;;;;;19.43;14.53;;;-3.00;99.90;;;;;;5036866;28;20455;-76
2022/03/03 00:49:51;;;;;;;19.60;14.17;;;-3.00;99.90;;;;;;5037092;28;20507;-76
2022/03/03 00:52:18;;;;;;;15.60;12.10;;;-3.00;99.90;;;;;;5037203;28;20104;-76
2022/03/03 00:54:44;;;;;;;18.73;15.93;;;-3.00;99.90;;;;;;5037265;28;20057;-77
2022/03/03 00:57:12;;;;;;;15.70;12.43;;;-3.00;99.90;;;;;;5036913;28;20553;-75
2022/03/03 00:59:39;;;;;;;17.17;12.90;;;-3.00;99.90;;;;;;5037450;28;20060;-77
2022/03/03 01:02:06;;;;;;;17.33;14.77;;;-3.00;99.90;;;;;;5036897;28;20384;-77
2022/03/03 01:04:32;;;;;;;17.50;11.67;;;-2.90;99.90;;;;;;5037390;28;20443;-76
2022/03/03 01:06:59;;;;;;;14.07;12.03;;;-2.70;99.90;;;;;;5038148;28;20095;-76
2022/03/03 01:09:26;;;;;;;17.33;11.83;;;-2.60;99.90;;;;;;5037108;28;20072;-77
2022/03/03 01:11:52;;;;;;;16.27;10.80;;;-2.50;99.90;;;;;;5036871;28;20053;-77
2022/03/03 01:14:23;;;;;;;17.47;13.27;;;-2.50;99.90;;;;;;5036738;28;20111;-77
2022/03/03 01:16:49;;;;;;;16.50;13.40;;;-2.50;99.90;;;;;;5037005;28;20049;-76
2022/03/03 01:19:16;;;;;;;14.27;11.50;;;-2.60;99.90;;;;;;5037259;28;20119;-76
2022/03/03 01:21:43;;;;;;;18.07;12.17;;;-2.70;99.90;;;;;;5040778;28;20053;-79
2022/03/03 01:24:09;;;;;;;17.27;14.37;;;-2.80;99.90;;;;;;5046263;28;20053;-77
2022/03/03 01:26:36;;;;;;;25.43;14.33;;;-2.90;99.90;;;;;;5040927;28;20049;-77
2022/03/03 01:29:03;;;;;;;15.50;10.70;;;-2.80;99.90;;;;;;5039663;28;20041;-77
2022/03/03 01:31:31;;;;;;;17.90;13.17;;;-2.70;99.90;;;;;;5040840;28;20084;-77
2022/03/03 01:33:58;;;;;;;14.73;12.40;;;-2.60;99.90;;;;;;5044295;28;20057;-77
2022/03/03 01:36:25;;;;;;;20.90;13.67;;;-2.60;99.90;;;;;;5038895;28;20049;-77
2022/03/03 01:38:51;;;;;;;20.63;14.63;;;-2.60;99.90;;;;;;5038555;28;20080;-76
2022/03/03 01:41:18;;;;;;;16.93;14.17;;;-2.50;99.90;;;;;;5046463;28;20099;-77
2022/03/03 01:43:45;;;;;;;20.77;12.83;;;-2.50;99.90;;;;;;5045131;28;20076;-78
2022/03/03 01:46:12;;;;;;;16.80;12.60;;;-2.30;99.90;;;;;;5035313;28;20492;-76
2022/03/03 01:48:40;;;;;;;17.10;12.07;;;-2.30;99.90;;;;;;5030776;28;20054;-76
2022/03/03 01:51:06;;;;;;;23.53;13.57;;;-2.20;99.90;;;;;;5031567;28;20420;-77
2022/03/03 01:53:33;;;;;;;23.13;15.83;;;-2.30;99.90;;;;;;5030236;28;20046;-77
2022/03/03 01:56:00;;;;;;;18.73;13.93;;;-2.30;99.90;;;;;;5031002;28;20034;-77
2022/03/03 01:58:27;;;;;;;15.37;13.77;;;-2.40;99.90;;;;;;5028721;28;20052;-78
2022/03/03 02:00:54;;;;;;;20.50;14.27;;;-2.50;99.90;;;;;;5024482;28;20108;-76
2022/03/03 02:03:21;;;;;;;17.03;12.63;;;-2.60;99.90;;;;;;5022453;28;20155;-78
2022/03/03 02:05:49;;;;;;;23.10;15.57;;;-2.70;99.90;;;;;;5023318;28;20538;-77
2022/03/03 02:08:15;;;;;;;19.73;15.27;;;-2.80;99.90;;;;;;5022780;28;20038;-77
2022/03/03 02:10:42;;;;;;;14.37;12.90;;;-3.00;99.90;;;;;;5022723;28;20046;-78
2022/03/03 02:13:09;;;;;;;26.00;17.27;;;-2.80;99.90;;;;;;5024607;28;20108;-77
2022/03/03 02:15:36;;;;;;;19.80;14.47;;;-2.70;99.90;;;;;;5025283;28;20077;-77
2022/03/03 02:18:03;;;;;;;18.73;14.30;;;-2.60;99.90;;;;;;5026946;28;20041;-76
2022/03/03 02:20:32;;;;;;;17.40;15.00;;;-2.50;99.90;;;;;;5029696;28;20046;-78
2022/03/03 02:22:59;;;;;;;15.47;11.97;;;-2.60;99.90;;;;;;5028273;28;20617;-79
2022/03/03 02:25:26;;;;;;;17.83;12.13;;;-2.60;99.90;;;;;;5030457;28;20100;-77
2022/03/03 02:27:53;;;;;;;17.03;12.67;;;-2.50;99.90;;;;;;5028848;28;20049;-77
2022/03/03 02:30:20;;;;;;;14.70;13.20;;;-2.40;99.90;;;;;;5022361;28;20053;-76
2022/03/03 02:32:47;;;;;;;19.30;14.83;;;-2.40;99.90;;;;;;5032748;28;20049;-76
2022/03/03 02:35:14;;;;;;;20.13;14.83;;;-2.30;99.90;;;;;;5034566;28;20109;-77
2022/03/03 02:37:43;;;;;;;16.97;13.80;;;-2.40;99.90;;;;;;5020118;28;20041;-77
2022/03/03 02:40:12;;;;;;;14.60;12.83;;;-2.40;99.90;;;;;;5035504;28;20042;-77
2022/03/03 02:42:39;;;;;;;18.00;13.47;;;-2.30;99.90;;;;;;5034372;28;20096;-77
2022/03/03 02:45:06;;;;;;;14.93;12.63;;;-2.20;99.90;;;;;;5030604;28;20554;-76
2022/03/03 02:47:33;;;;;;;18.17;13.53;;;-2.20;99.90;;;;;;5017316;28;20108;-77
2022/03/03 02:50:00;;;;;;;15.60;12.60;;;-2.40;99.90;;;;;;5014906;28;20100;-75
2022/03/03 02:52:27;;;;;;;17.43;13.27;;;-2.50;99.90;;;;;;5015968;28;20058;-76
2022/03/03 02:54:54;;;;;;;13.30;12.10;;;-2.50;99.90;;;;;;5018241;28;20097;-76
2022/03/03 03:00:17;;;;;;;20.33;14.33;;;-2.70;99.90;;;;;;4938090;29;20130;-76
2022/03/03 03:02:44;;;;;;;19.43;14.67;;;-2.70;99.90;;;;;;4996263;28;20496;-76
2022/03/03 03:05:11;;;;;;;15.20;13.63;;;-2.60;99.90;;;;;;5014787;28;20064;-76
2022/03/03 03:07:38;;;;;;;17.07;11.80;;;-2.50;99.90;;;;;;5014834;28;20054;-78
2022/03/03 03:10:07;;;;;;;20.60;11.73;;;-2.50;99.90;;;;;;5015430;28;20535;-76
2022/03/03 03:12:34;;;;;;;15.13;11.80;;;-2.70;99.90;;;;;;5014991;28;20538;-75
2022/03/03 03:15:01;;;;;;;18.77;13.60;;;-2.80;99.90;;;;;;5014929;28;20054;-76
2022/03/03 03:17:27;;;;;;;14.07;12.50;;;-2.70;99.90;;;;;;5015755;28;20049;-76
2022/03/03 03:19:54;;;;;;;27.27;12.73;;;-2.70;99.90;;;;;;5015353;28;20080;-76
2022/03/03 03:22:21;;;;;;;21.17;15.57;;;-2.70;99.90;;;;;;5016168;28;20046;-76
2022/03/03 03:24:47;;;;;;;17.73;14.40;;;-2.60;99.90;;;;;;5015178;28;20116;-76
2022/03/03 03:27:15;;;;;;;14.10;11.23;;;-2.70;99.90;;;;;;5015651;28;20416;-75
2022/03/03 03:29:42;;;;;;;24.10;17.63;;;-2.70;99.90;;;;;;5015568;28;20065;-75
2022/03/03 03:32:12;;;;;;;17.33;15.57;;;-2.80;99.90;;;;;;5015308;28;20539;-76
2022/03/03 03:34:38;;;;;;;13.17;11.97;;;-2.70;99.90;;;;;;5015208;28;20049;-76
2022/03/03 03:37:05;;;;;;;18.43;14.67;;;-2.70;99.90;;;;;;5014640;28;20057;-76
2022/03/03 03:39:32;;;;;;;28.10;17.33;;;-2.60;99.90;;;;;;5014830;28;20144;-76
2022/03/03 03:41:59;;;;;;;22.10;16.97;;;-2.50;99.90;;;;;;5015836;28;20045;-75
2022/03/03 03:44:27;;;;;;;15.23;13.17;;;-2.60;99.90;;;;;;5015057;28;20513;-77
2022/03/03 03:47:05;;;;;;;15.43;12.67;;;-2.60;99.90;;;;;;5014394;28;20049;-76
2022/03/03 03:49:33;;;;;;;13.70;12.47;;;-2.70;99.90;;;;;;5014885;28;20081;-75
2022/03/03 03:51:59;;;;;;;17.90;15.30;;;-2.80;99.90;;;;;;5014015;28;20054;-75
2022/03/03 03:54:26;;;;;;;16.20;12.63;;;-2.80;99.90;;;;;;5014255;28;20053;-75
2022/03/03 03:56:52;;;;;;;16.33;13.27;;;-2.80;99.90;;;;;;5013992;28;20049;-76
2022/03/03 03:59:19;;;;;;;19.97;11.87;;;-2.80;99.90;;;;;;5013838;28;20425;-76
2022/03/03 04:01:47;;;;;;;22.13;12.83;;;-2.90;99.90;;;;;;5014428;28;20546;-76
2022/03/03 04:04:14;;;;;;;17.03;12.23;;;-2.80;99.90;;;;;;5013144;28;20857;-77
2022/03/03 04:06:41;;;;;;;14.80;12.03;;;-2.70;99.90;;;;;;5014313;28;20049;-75
2022/03/03 04:09:07;;;;;;;23.70;15.93;;;-2.70;99.90;;;;;;5014173;28;20148;-76
2022/03/03 04:11:34;;;;;;;24.47;14.93;;;-2.70;99.90;;;;;;5013954;28;20111;-77
2022/03/03 04:14:01;;;;;;;21.83;14.43;;;-2.70;99.90;;;;;;5013655;28;20076;-75
2022/03/03 04:16:28;;;;;;;13.03;11.33;;;-2.80;99.90;;;;;;5013764;28;20049;-77
2022/03/03 04:18:56;;;;;;;17.00;12.97;;;-2.70;99.90;;;;;;5014115;28;20492;-76
2022/03/03 04:21:23;;;;;;;18.77;13.43;;;-2.70;99.90;;;;;;5014536;28;20042;-76
2022/03/03 04:23:50;;;;;;;20.53;14.33;;;-2.70;99.90;;;;;;5014233;28;20050;-76
2022/03/03 04:26:17;;;;;;;16.67;13.97;;;-2.80;99.90;;;;;;5014001;28;20042;-75
2022/03/03 04:28:43;;;;;;;21.87;17.47;;;-2.90;99.90;;;;;;5013746;28;20077;-76
2022/03/03 04:31:10;;;;;;;25.83;14.37;;;-2.90;99.90;;;;;;5014079;28;20116;-76
2022/03/03 04:33:37;;;;;;;17.40;14.13;;;-3.10;99.90;;;;;;5013841;28;20050;-76
2022/03/03 04:36:06;;;;;;;15.23;13.30;;;-3.10;99.90;;;;;;5013243;28;20046;-76
2022/03/03 04:38:33;;;;;;;19.17;12.80;;;-3.00;99.90;;;;;;5013477;28;20058;-77
2022/03/03 04:41:00;;;;;;;17.00;14.33;;;-3.00;99.90;;;;;;5013316;28;20045;-77
2022/03/03 04:43:26;;;;;;;16.03;12.53;;;-3.10;99.90;;;;;;5013586;28;20077;-77
2022/03/03 04:45:56;;;;;;;19.83;10.80;;;-3.30;99.90;;;;;;5014339;28;20042;-82
2022/03/03 04:48:29;;;;;;;16.37;12.27;;;-3.20;99.90;;;;;;5015712;28;20046;-81
2022/03/03 04:50:57;;;;;;;17.03;12.03;;;-3.30;99.90;;;;;;5014953;28;20046;-81
2022/03/03 04:53:28;;;;;;;15.73;11.40;;;-3.40;99.90;;;;;;5013367;28;20070;-83
2022/03/03 04:55:56;;;;;;;15.02;11.15;;;-3.50;99.90;;;;;;5008897;28;20049;-79
2022/03/03 04:58:23;;;;;;;13.40;10.63;;;-3.50;99.90;;;;;;5013052;28;20050;-80
2022/03/03 05:00:52;;;;;;;16.50;13.20;;;-3.50;99.90;;;;;;5014469;28;20612;-80
2022/03/03 05:03:19;;;;;;;11.20;10.17;;;-3.40;99.90;;;;;;5018062;28;20511;-78
2022/03/03 05:05:47;;;;;;;15.10;9.43;;;-3.40;99.90;;;;;;5014930;28;20084;-80
2022/03/03 05:08:13;;;;;;;13.23;11.13;;;-3.40;99.90;;;;;;5014784;28;20078;-80
2022/03/03 05:10:42;;;;;;;12.83;10.67;;;-3.40;99.90;;;;;;5016405;28;20053;-80
2022/03/03 05:13:08;;;;;;;24.47;10.80;;;-3.70;99.90;;;;;;5017616;28;20053;-80
2022/03/03 05:15:35;;;;;;;11.93;10.77;;;-3.70;99.90;;;;;;5030069;28;20060;-78
2022/03/03 05:18:02;;;;;;;16.67;10.63;;;-3.60;99.90;;;;;;5029374;28;20064;-78
2022/03/03 05:20:29;;;;;;;14.67;10.10;;;-3.60;99.90;;;;;;5028885;28;20037;-81
2022/03/03 05:22:56;;;;;;;16.97;11.50;;;-3.60;99.90;;;;;;5036634;28;20061;-84
2022/03/03 05:25:23;;;;;;;18.33;9.97;;;-3.70;99.90;;;;;;5034319;28;20041;-78
2022/03/03 05:28:24;;;;;;;11.77;10.53;;;-3.70;99.90;;;;;;5088898;22;20056;-92
2022/03/03 05:30:52;;;;;;;11.37;9.80;;;-3.60;99.90;;;;;;5024605;28;20077;-80
2022/03/03 05:33:20;;;;;;;15.63;12.80;;;-3.50;99.90;;;;;;5038389;28;20046;-80
2022/03/03 05:35:48;;;;;;;16.57;13.80;;;-3.50;99.90;;;;;;5026839;28;20133;-80
2022/03/03 05:38:15;;;;;;;14.90;11.80;;;-3.40;99.90;;;;;;5016490;28;20050;-77
2022/03/03 05:40:42;;;;;;;10.00;8.50;;;-3.50;99.90;;;;;;5016191;28;20050;-85
2022/03/03 05:43:10;;;;;;;13.17;11.80;;;-3.70;99.90;;;;;;5015608;28;20058;-77
2022/03/03 05:45:37;;;;;;;15.13;12.73;;;-3.60;99.90;;;;;;5016892;28;20114;-78
2022/03/03 05:48:07;;;;;;;16.93;12.77;;;-3.70;99.90;;;;;;5017031;28;20050;-76
2022/03/03 05:50:34;;;;;;;15.57;10.50;;;-3.70;99.90;;;;;;5016072;28;20045;-77
2022/03/03 05:53:01;;;;;;;17.27;11.30;;;-3.70;99.90;;;;;;5016514;28;20049;-77
2022/03/03 05:55:30;;;;;;;14.60;12.90;;;-3.60;99.90;;;;;;5015643;28;20522;-76
2022/03/03 05:58:02;;;;;;;20.47;11.37;;;-3.60;99.90;;;;;;5017863;28;20472;-81
2022/03/03 06:00:31;;;;;;;19.83;12.93;;;-3.60;99.90;;;;;;5020166;28;20080;-82
2022/03/03 06:03:03;;;;;;;19.17;11.53;;;-3.60;99.90;;;;;;5002802;28;20079;-84
2022/03/03 06:05:32;;;;;;;20.37;11.17;;;-3.50;99.90;;;;;;5020717;28;20462;-77
2022/03/03 06:08:05;;;;;;;23.63;13.57;;;-3.50;99.90;;;;;;5016708;28;20046;-83
2022/03/03 06:10:41;;;;;;;16.90;12.93;;;-3.40;99.90;;;;;;5016236;28;20053;-82
2022/03/03 06:13:15;;;;;;;16.27;14.53;;;-3.40;99.90;;;;;;5004279;28;20054;-81
2022/03/03 06:15:45;;;;;;;22.97;13.63;;;-3.20;99.90;;;;;;5019723;28;20097;-89
2022/03/03 06:18:14;;;;;;;32.27;13.57;;;-2.90;99.90;;;;;;5025355;28;20058;-88
2022/03/03 06:20:45;;;;;;;20.60;12.77;;;-2.80;99.90;;;;;;5016071;28;20049;-81
2022/03/03 06:23:13;;;;;;;16.52;13.40;;;-2.40;99.90;;;;;;5016073;28;20050;-82
2022/03/03 06:25:43;;;;;;;16.83;12.53;;;-2.10;99.90;;;;;;5017430;28;20056;-89
2022/03/03 06:28:09;;;;;;;16.37;13.53;;;-1.80;99.90;;;;;;5017336;28;20077;-85
2022/03/03 06:30:36;;;;;;;23.60;13.83;;;-1.50;99.90;;;;;;5015603;28;20054;-86
2022/03/03 06:33:04;;;;;;;17.23;13.90;;;-1.30;99.90;;;;;;5016453;28;20045;-79
2022/03/03 06:35:35;;;;;;;18.00;14.07;;;-1.10;99.90;;;;;;5016754;28;20045;-86
2022/03/03 06:38:05;;;;;;;19.00;12.57;;;-0.80;99.90;;;;;;5021636;28;20112;-83
2022/03/03 06:40:33;;;;;;;15.47;12.73;;;-0.60;99.90;;;;;;5018149;28;20045;-88
2022/03/03 06:43:01;;;;;;;15.10;11.83;;;-0.50;99.90;;;;;;5021515;28;20436;-84
2022/03/03 06:45:29;;;;;;;19.17;13.93;;;-0.50;99.90;;;;;;5023795;28;20587;-83
2022/03/03 06:47:56;;;;;;;15.50;12.40;;;-0.10;99.90;;;;;;5017885;28;20042;-83
2022/03/03 06:50:23;;;;;;;20.87;12.43;;;0.20;99.90;;;;;;5017744;28;20110;-80
2022/03/03 06:52:52;;;;;;;19.63;13.10;;;0.60;99.90;;;;;;5013262;28;20045;-81
2022/03/03 06:55:21;;;;;;;19.53;12.70;;;0.90;99.90;;;;;;5014371;28;20587;-79
2022/03/03 06:57:53;;;;;;;17.63;11.53;;;1.00;99.90;;;;;;5017843;28;20054;-79
2022/03/03 07:00:20;;;;;;;18.63;12.25;;;1.40;99.90;;;;;;5018652;28;20129;-80
2022/03/03 07:02:47;;;;;;;20.43;11.43;;;1.60;99.90;;;;;;5014780;28;20109;-79
2022/03/03 07:05:15;;;;;;;20.80;14.93;;;1.90;99.90;;;;;;5016373;28;20061;-77
2022/03/03 07:07:43;;;;;;;20.40;14.10;;;2.20;99.90;;;;;;5014934;28;20050;-79
2022/03/03 07:10:11;;;;;;;23.23;14.60;;;2.30;99.90;;;;;;5014941;28;20108;-79
2022/03/03 07:12:40;;;;;;;22.40;13.87;;;2.10;99.90;;;;;;5015404;28;20057;-76
2022/03/03 07:15:09;;;;;;;27.70;15.50;;;1.90;99.90;;;;;;5015669;28;20099;-88
2022/03/03 07:17:47;;;;;;;28.53;17.93;;;1.50;99.90;;;;;;5018009;28;20119;-80
2022/03/03 07:20:18;;;;;;;23.17;14.13;;;1.10;99.90;;;;;;5014706;28;20058;-79
2022/03/03 07:23:04;;;;;;;21.67;15.25;;;1.00;99.90;;;;;;5013650;28;20081;-79
2022/03/03 07:25:43;;;;;;;26.23;14.63;;;0.90;99.90;;;;;;5013814;28;20046;-84
2022/03/03 07:28:14;;;;;;;22.87;15.00;;;0.70;99.90;;;;;;5015664;28;20054;-85
2022/03/03 07:30:43;;;;;;;34.43;17.17;;;0.70;99.90;;;;;;5017130;28;20141;-85
2022/03/03 07:33:13;;;;;;;24.73;15.60;;;0.60;99.90;;;;;;5019655;28;20311;-87
2022/03/03 07:35:43;;;;;;;29.87;17.57;;;0.60;99.90;;;;;;5018698;28;20455;-80
2022/03/03 07:38:14;;;;;;;27.23;15.47;;;0.50;99.90;;;;;;5014267;28;20045;-84
2022/03/03 07:40:42;;;;;;;34.40;18.67;;;0.40;99.90;;;;;;5015604;28;20056;-79
2022/03/03 07:47:02;;;;;;;25.30;13.17;;;0.40;99.90;;;;;;4974314;29;20056;-91
2022/03/03 07:49:55;;;;;;;31.60;18.80;;;0.50;99.90;;;;;;4974502;28;20559;-87
2022/03/03 07:52:23;;;;;;;33.00;17.00;;;0.50;99.90;;;;;;4966295;28;20481;-81
2022/03/03 07:54:51;;;;;;;40.33;19.33;;;0.50;99.90;;;;;;4977676;28;20047;-81
2022/03/03 07:57:18;;;;;;;31.83;17.60;;;0.40;99.90;;;;;;4976216;28;20062;-80
2022/03/03 07:59:48;;;;;;;28.97;16.47;;;0.50;99.90;;;;;;4973254;28;20418;-77
2022/03/03 08:02:22;;;;;;;30.40;15.60;;;0.40;99.90;;;;;;4973980;28;20054;-78
2022/03/03 08:04:50;;;;;;;29.37;17.70;;;0.40;99.90;;;;;;4970348;28;20050;-79
2022/03/03 08:07:18;;;;;;;23.17;16.23;;;0.40;99.90;;;;;;4970379;28;20081;-85
2022/03/03 08:09:48;;;;;;;27.10;13.37;;;0.40;99.90;;;;;;4955929;28;20074;-85
2022/03/03 08:12:23;;;;;;;26.83;15.17;;;0.40;99.90;;;;;;4976656;28;20054;-91
2022/03/03 08:14:54;;;;;;;24.70;16.27;;;0.20;99.90;;;;;;4972685;28;20055;-88
2022/03/03 08:17:24;;;;;;;25.53;17.10;;;0.30;99.90;;;;;;4993009;28;20488;-81
2022/03/03 08:19:53;;;;;;;31.57;18.83;;;0.30;99.90;;;;;;5014067;28;20393;-82
2022/03/03 08:22:20;;;;;;;17.97;12.40;;;0.30;99.90;;;;;;5013202;28;20046;-81
2022/03/03 08:24:47;;;;;;;31.60;14.20;;;0.40;99.90;;;;;;5001263;28;20054;-80
2022/03/03 08:27:14;;;;;;;22.07;11.40;;;0.30;99.90;;;;;;5010939;28;20050;-79
2022/03/03 08:29:41;;;;;;;27.23;17.00;;;0.30;99.90;;;;;;5005632;28;20045;-77
2022/03/03 08:32:12;;;;;;;18.80;11.87;;;0.30;99.90;;;;;;5014645;28;20050;-80
2022/03/03 08:34:48;;;;;;;18.40;10.90;;;0.30;99.90;;;;;;5013259;28;20472;-79
2022/03/03 08:37:19;;;;;;;21.77;12.33;;;0.40;99.90;;;;;;5014005;28;20126;-86
2022/03/03 08:39:47;;;;;;;19.70;12.93;;;0.40;99.90;;;;;;5013983;28;20053;-81
2022/03/03 08:42:23;;;;;;;18.40;12.97;;;0.40;99.90;;;;;;5013396;28;20050;-84
2022/03/03 08:44:53;;;;;;;20.13;10.67;;;0.40;99.90;;;;;;5015339;28;20050;-79
2022/03/03 08:47:22;;;;;;;14.50;9.10;;;0.40;99.90;;;;;;5015170;28;20054;-83
2022/03/03 08:49:59;;;;;;;26.53;13.13;;;0.50;99.90;;;;;;5013849;28;20463;-78
2022/03/03 08:52:27;;;;;;;17.10;10.83;;;0.50;99.90;;;;;;5013455;28;20050;-78
2022/03/03 08:54:53;;;;;;;18.80;9.03;;;0.60;99.90;;;;;;5012392;28;20046;-77
2022/03/03 08:57:20;;;;;;;20.33;9.00;;;0.60;99.90;;;;;;5012915;28;20542;-81
2022/03/03 08:59:47;;;;;;;11.77;7.67;;;0.70;99.90;;;;;;5022092;28;20492;-80
2022/03/03 09:02:17;;;;;;;18.07;11.03;;;0.60;99.90;;;;;;5012828;28;20072;-79
2022/03/03 09:04:44;;;;;;;17.90;8.50;;;0.60;99.90;;;;;;5015819;28;20049;-78
2022/03/03 09:07:12;;;;;;;13.60;8.30;;;0.50;99.90;;;;;;5016300;28;20104;-79
2022/03/03 09:09:39;;;;;;;19.53;9.67;;;0.50;99.90;;;;;;5018104;28;20058;-85
2022/03/03 09:12:06;;;;;;;13.17;7.10;;;0.50;99.90;;;;;;5016445;28;20049;-79
2022/03/03 09:14:34;;;;;;;15.17;8.30;;;0.60;99.90;;;;;;5015493;28;20077;-80
2022/03/03 09:17:01;;;;;;;13.93;9.07;;;0.60;99.90;;;;;;5016204;28;20057;-79
2022/03/03 09:19:28;;;;;;;12.60;7.67;;;0.70;99.90;;;;;;5015152;28;20108;-81
2022/03/03 09:21:55;;;;;;;14.13;8.57;;;0.60;99.90;;;;;;5015762;28;20500;-76
2022/03/03 09:24:23;;;;;;;14.03;7.47;;;0.70;99.90;;;;;;5015691;28;20046;-82
2022/03/03 09:26:50;;;;;;;11.60;6.83;;;0.80;99.90;;;;;;5015812;28;20058;-77
2022/03/03 09:29:17;;;;;;;9.87;5.90;;;0.80;99.90;;;;;;5014958;28;20080;-79
2022/03/03 09:31:45;;;;;;;14.57;7.43;;;1.00;99.90;;;;;;5016337;28;20484;-82
2022/03/03 09:34:12;;;;;;;9.37;7.97;;;1.10;99.90;;;;;;5016005;28;20049;-80
2022/03/03 09:36:38;;;;;;;15.03;7.33;;;1.10;99.90;;;;;;5015419;28;20399;-83
2022/03/03 09:39:06;;;;;;;13.23;9.07;;;1.20;99.90;;;;;;5016814;28;20104;-84
2022/03/03 09:41:34;;;;;;;16.23;10.27;;;1.30;99.90;;;;;;5016323;28;20479;-75
2022/03/03 09:44:00;;;;;;;14.67;7.37;;;1.40;99.90;;;;;;5019315;28;20054;-78
2022/03/03 09:46:27;;;;;;;17.87;8.47;;;1.50;99.90;;;;;;5020052;28;20069;-80
2022/03/03 09:48:53;;;;;;;17.07;9.43;;;1.60;99.90;;;;;;5021919;28;20484;-77
2022/03/03 09:51:20;;;;;;;16.37;8.87;;;1.60;99.90;;;;;;5022981;28;20109;-81
2022/03/03 09:53:49;;;;;;;16.77;8.27;;;1.70;99.90;;;;;;5024387;28;20500;-83
2022/03/03 09:56:16;;;;;;;16.77;10.30;;;1.80;99.90;;;;;;5022487;28;20049;-83
2022/03/03 09:58:44;;;;;;;16.27;8.60;;;1.90;99.90;;;;;;5025013;28;20433;-84
2022/03/03 10:01:11;;;;;;;23.53;10.23;;;2.00;99.90;;;;;;5023689;28;20050;-81
2022/03/03 10:03:38;;;;;;;17.80;8.27;;;2.00;99.90;;;;;;5028619;28;20045;-82
2022/03/03 10:06:06;;;;;;;20.30;10.77;;;2.10;99.90;;;;;;5023141;28;20053;-80
2022/03/03 10:08:36;;;;;;;13.90;6.83;;;2.20;99.90;;;;;;5024574;28;20046;-79
2022/03/03 10:11:04;;;;;;;19.67;9.82;;;2.20;99.90;;;;;;5027175;28;20054;-79
2022/03/03 10:13:50;;;;;;;17.73;8.60;;;2.30;99.90;;;;;;5024615;28;20080;-83
2022/03/03 10:16:23;;;;;;;23.60;9.97;;;2.40;99.90;;;;;;5029927;28;20034;-83
2022/03/03 10:19:01;;;;;;;21.80;12.00;;;2.50;99.90;;;;;;5036739;28;20081;-85
2022/03/03 10:21:29;;;;;;;19.17;10.13;;;2.50;99.90;;;;;;5036792;28;20034;-84
2022/03/03 10:23:57;;;;;;;16.90;9.83;;;2.50;99.90;;;;;;5034134;28;20109;-83
2022/03/03 10:26:35;;;;;;;18.83;9.23;;;2.30;99.90;;;;;;5023264;28;20054;-84
2022/03/03 10:29:17;;;;;;;14.57;8.87;;;2.30;99.90;;;;;;5031598;28;20048;-83
2022/03/03 10:31:48;;;;;;;20.88;9.98;;;2.20;99.90;;;;;;5030481;28;20057;-84
2022/03/03 10:34:19;;;;;;;16.58;9.32;;;2.20;99.90;;;;;;5030915;28;20052;-82
2022/03/03 10:36:56;;;;;;;25.38;13.63;;;2.30;99.90;;;;;;5025884;28;20141;-78
2022/03/03 10:42:50;;;;;;;19.13;11.67;;;2.20;99.90;;;;;;5026824;28;20034;-79
2022/03/03 10:45:21;;;;;;;22.27;11.00;;;2.20;99.90;;;;;;5017993;28;20057;-80
2022/03/03 10:47:59;;;;;;;20.10;10.10;;;2.30;99.90;;;;;;5016296;28;20469;-79
2022/03/03 10:50:26;;;;;;;19.27;11.10;;;2.40;99.90;;;;;;5015362;28;20344;-79
2022/03/03 10:52:53;;;;;;;19.17;11.03;;;2.40;99.90;;;;;;5015472;28;20115;-80
2022/03/03 10:55:20;;;;;;;18.70;11.40;;;2.40;99.90;;;;;;5015030;28;20104;-79
2022/03/03 10:57:48;;;;;;;18.13;10.27;;;2.40;99.90;;;;;;5015881;28;20128;-79
2022/03/03 11:00:19;;;;;;;17.20;9.13;;;2.40;99.90;;;;;;5014930;28;20188;-78
2022/03/03 11:02:48;;;;;;;22.33;10.77;;;2.40;99.90;;;;;;5015260;28;20116;-79
2022/03/03 11:05:16;;;;;;;22.27;11.00;;;2.40;99.90;;;;;;5014094;28;20444;-79
2022/03/03 11:07:44;;;;;;;18.37;10.93;;;2.40;99.90;;;;;;5014924;28;20054;-79
2022/03/03 11:10:13;;;;;;;18.53;8.70;;;2.40;99.90;;;;;;5015097;28;20108;-79
2022/03/03 11:12:40;;;;;;;20.30;9.70;;;2.40;99.90;;;;;;5014879;28;20427;-80
2022/03/03 11:15:08;;;;;;;15.27;9.10;;;2.50;99.90;;;;;;5015459;28;20049;-79
2022/03/03 11:17:36;;;;;;;20.73;9.30;;;2.50;99.90;;;;;;5015202;28;20440;-79
2022/03/03 11:20:05;;;;;;;21.17;9.87;;;2.40;99.90;;;;;;5015054;28;20389;-79
2022/03/03 11:22:32;;;;;;;16.63;8.60;;;2.40;99.90;;;;;;5015206;28;20516;-79
2022/03/03 11:25:02;;;;;;;15.30;7.70;;;2.40;99.90;;;;;;5015104;28;20054;-80
2022/03/03 11:27:34;;;;;;;19.30;9.33;;;2.40;99.90;;;;;;5014480;28;20137;-81
2022/03/03 11:30:19;;;;;;;15.67;9.00;;;2.40;99.90;;;;;;5014131;28;20111;-80
2022/03/03 11:33:08;;;;;;;13.87;8.00;;;2.50;99.90;;;;;;5014393;28;20053;-80
2022/03/03 11:35:48;;;;;;;19.67;9.97;;;2.60;99.90;;;;;;5013884;28;20046;-80
2022/03/03 11:38:14;;;;;;;20.50;9.97;;;2.70;99.90;;;;;;5013834;28;20564;-80
2022/03/03 11:40:52;;;;;;;14.70;7.53;;;2.80;99.90;;;;;;5014351;28;20108;-79
2022/03/03 11:43:21;;;;;;;23.60;10.23;;;2.70;99.90;;;;;;5013945;28;20546;-79
2022/03/03 11:45:52;;;;;;;21.73;10.57;;;2.70;99.90;;;;;;5014052;28;20041;-80
2022/03/03 11:48:22;;;;;;;20.13;9.57;;;2.70;99.90;;;;;;5013946;28;20100;-80
2022/03/03 11:50:50;;;;;;;15.43;9.27;;;2.70;99.90;;;;;;5013968;28;20085;-78
2022/03/03 11:53:22;;;;;;;15.17;9.47;;;2.70;99.90;;;;;;5014130;28;20073;-79
2022/03/03 11:56:07;;;;;;;23.67;9.03;;;2.70;99.90;;;;;;5013554;28;20042;-79
2022/03/03 11:58:40;;;;;;;22.43;8.60;;;2.70;99.90;;;;;;5013894;28;20081;-79
2022/03/03 12:01:12;;;;;;;13.97;7.63;;;2.70;99.90;;;;;;5013794;28;20050;-80
2022/03/03 12:04:00;;;;;;;17.33;6.77;;;2.60;99.90;;;;;;5013848;28;20096;-80
2022/03/03 12:06:43;;;;;;;18.53;8.13;;;2.70;99.90;;;;;;5005110;28;20144;-82
2022/03/03 12:09:21;;;;;;;12.07;6.93;;;2.80;99.90;;;;;;5013147;28;20054;-78
2022/03/03 12:11:48;;;;;;;10.47;6.13;;;2.80;99.90;;;;;;5013909;28;20520;-81
2022/03/03 12:14:35;;;;;;;12.40;6.53;;;2.70;99.90;;;;;;5017069;28;20112;-80
2022/03/03 12:17:40;;;;;;;10.67;5.57;;;2.70;99.90;;;;;;5021739;28;20471;-80
2022/03/03 12:20:32;;;;;;;10.73;4.80;;;2.80;99.90;;;;;;5005624;28;20436;-77
2022/03/03 12:23:10;;;;;;;12.98;5.20;;;2.80;99.90;;;;;;5013698;28;20104;-85
2022/03/03 12:26:02;;;;;;;12.07;6.40;;;2.70;99.90;;;;;;5014367;28;20046;-83
2022/03/03 12:28:40;;;;;;;10.75;4.82;;;2.70;99.90;;;;;;5020149;28;20808;-86
2022/03/03 12:31:24;;;;;;;12.70;6.57;;;2.50;99.90;;;;;;5005190;28;20068;-81
2022/03/03 12:33:56;;;;;;;11.50;7.73;;;2.60;99.90;;;;;;5013979;28;20057;-81
2022/03/03 12:36:25;;;;;;;15.27;7.00;;;2.60;99.90;;;;;;5013178;28;20054;-79
2022/03/03 12:38:53;;;;;;;11.63;6.40;;;2.60;99.90;;;;;;5017845;28;20054;-79
2022/03/03 12:41:28;;;;;;;5.77;4.37;;;2.60;99.90;;;;;;5029520;28;20140;-90
2022/03/03 12:44:04;;;;;;;14.70;6.77;;;2.60;99.90;;;;;;5020735;28;20045;-78
2022/03/03 12:46:32;;;;;;;5.70;3.47;;;2.60;99.90;;;;;;5018076;28;20046;-78
2022/03/03 12:49:02;;;;;;;18.43;6.60;;;2.60;99.90;;;;;;5017231;28;20068;-74
2022/03/03 12:51:31;;;;;;;8.13;5.03;;;2.40;99.90;;;;;;5017160;28;20057;-79
2022/03/03 12:53:58;;;;;;;10.23;4.73;;;2.30;99.90;;;;;;5017082;28;20453;-80